Time;durP1;ratioP1;P1;durP2;ratioP2;P2;SDS_P1;SDS_P2;PMS_P1;PMS_P2;Temp;Humidity;BMP_temperature;BMP_pressure;BME280_temperature;BME280_humidity;BME280_pressure;Samples;Min_cycle;Max_cycle;Signal;HPM_P1;HPM_P2
2022/06/23 00:01:48;;;;;;;10.90;9.30;;;13.50;99.90;;;;;;4989605;28;20052;-91
2022/06/23 00:04:19;;;;;;;9.43;8.32;;;13.40;99.90;;;;;;5006244;28;20052;-89
2022/06/23 00:06:52;;;;;;;10.98;8.57;;;13.40;99.90;;;;;;5006120;28;20121;-90
2022/06/23 00:09:34;;;;;;;10.70;8.63;;;13.40;99.90;;;;;;4988915;28;20464;-90
2022/06/23 00:12:20;;;;;;;13.68;9.73;;;13.30;99.90;;;;;;4990233;28;20071;-91
2022/06/23 00:14:50;;;;;;;10.40;8.55;;;13.30;99.90;;;;;;5023855;28;20041;-91
2022/06/23 00:17:19;;;;;;;11.98;9.25;;;13.20;99.90;;;;;;5021506;28;20041;-91
2022/06/23 00:19:45;;;;;;;11.98;9.55;;;13.20;99.90;;;;;;5021203;28;20091;-89
2022/06/23 00:22:10;;;;;;;13.05;10.13;;;13.10;99.90;;;;;;5021279;28;20080;-91
2022/06/23 00:24:37;;;;;;;13.15;9.63;;;13.10;99.90;;;;;;4988632;28;20041;-90
2022/06/23 00:27:03;;;;;;;11.90;9.73;;;13.10;99.90;;;;;;5005617;28;20083;-91
2022/06/23 00:29:29;;;;;;;11.77;9.93;;;13.10;99.90;;;;;;5005225;28;20542;-90
2022/06/23 00:31:58;;;;;;;11.00;8.95;;;13.10;99.90;;;;;;5020675;28;20057;-90
2022/06/23 00:34:25;;;;;;;12.48;10.07;;;13.00;99.90;;;;;;5004840;28;20045;-90
2022/06/23 00:36:52;;;;;;;11.05;9.15;;;12.90;99.90;;;;;;5036730;28;20084;-89
2022/06/23 00:39:30;;;;;;;12.77;9.95;;;12.90;99.90;;;;;;5004432;28;20052;-89
2022/06/23 00:41:59;;;;;;;13.20;9.75;;;12.90;99.90;;;;;;5019778;28;20404;-90
2022/06/23 00:44:41;;;;;;;11.20;9.23;;;12.90;99.90;;;;;;5020628;28;20056;-90
2022/06/23 00:47:12;;;;;;;13.13;9.75;;;12.80;99.90;;;;;;5020015;28;20045;-90
2022/06/23 00:50:16;;;;;;;13.60;10.32;;;12.80;99.90;;;;;;5003720;28;20059;-90
2022/06/23 00:53:08;;;;;;;12.88;10.23;;;12.70;99.90;;;;;;5020173;28;20527;-90
2022/06/23 00:55:47;;;;;;;15.73;10.55;;;12.70;99.90;;;;;;5031289;28;20459;-90
2022/06/23 00:58:22;;;;;;;14.40;10.40;;;12.70;99.90;;;;;;5020752;28;20048;-91
2022/06/23 01:00:49;;;;;;;14.40;10.52;;;12.60;99.90;;;;;;5003684;28;20409;-89
2022/06/23 01:03:50;;;;;;;14.63;11.05;;;12.60;99.90;;;;;;5003511;28;20519;-90
2022/06/23 01:06:37;;;;;;;15.20;10.93;;;12.60;99.90;;;;;;5014352;28;20064;-89
2022/06/23 01:09:15;;;;;;;16.90;12.60;;;12.70;99.90;;;;;;5005560;28;20088;-89
2022/06/23 01:12:12;;;;;;;15.90;11.35;;;12.70;99.90;;;;;;5036220;28;20443;-89
2022/06/23 01:15:01;;;;;;;17.83;11.43;;;12.70;99.90;;;;;;5019288;28;20045;-88
2022/06/23 01:17:46;;;;;;;17.77;11.43;;;12.70;99.90;;;;;;5019877;28;20049;-90
2022/06/23 01:20:15;;;;;;;16.98;11.45;;;12.60;99.90;;;;;;4987393;28;20124;-87
2022/06/23 01:22:51;;;;;;;17.88;11.63;;;12.70;99.90;;;;;;5036673;28;20053;-89
2022/06/23 01:25:17;;;;;;;19.60;11.75;;;12.70;99.90;;;;;;5020486;28;20053;-89
2022/06/23 01:27:54;;;;;;;18.45;12.90;;;12.60;99.90;;;;;;5020131;28;20479;-89
2022/06/23 01:30:20;;;;;;;18.10;11.15;;;12.60;99.90;;;;;;5035613;28;20048;-89
2022/06/23 01:33:14;;;;;;;18.08;12.45;;;12.50;99.90;;;;;;4986003;28;20049;-89
2022/06/23 01:35:55;;;;;;;19.77;12.32;;;12.60;99.90;;;;;;5023709;28;20063;-89
2022/06/23 01:38:57;;;;;;;17.42;12.25;;;12.60;99.90;;;;;;5020018;28;20512;-89
2022/06/23 01:41:42;;;;;;;21.95;13.20;;;12.60;99.90;;;;;;5036655;28;20078;-88
2022/06/23 01:44:13;;;;;;;16.77;12.13;;;12.50;99.90;;;;;;5005095;28;20571;-87
2022/06/23 01:46:40;;;;;;;18.55;12.52;;;12.50;99.90;;;;;;5037402;28;20049;-88
2022/06/23 01:49:26;;;;;;;15.25;11.20;;;12.50;99.90;;;;;;5020383;28;20051;-88
2022/06/23 01:52:04;;;;;;;15.75;11.65;;;12.40;99.90;;;;;;5006235;28;20099;-90
2022/06/23 01:54:31;;;;;;;17.10;11.60;;;12.40;99.90;;;;;;5006133;28;20111;-88
2022/06/23 01:57:08;;;;;;;17.20;12.13;;;12.30;99.90;;;;;;5003932;28;20040;-89
2022/06/23 01:59:47;;;;;;;19.58;12.70;;;12.30;99.90;;;;;;5020289;28;20473;-88
2022/06/23 02:03:02;;;;;;;16.30;11.70;;;12.30;99.90;;;;;;5020021;28;20088;-88
2022/06/23 02:05:47;;;;;;;20.58;12.15;;;12.30;99.90;;;;;;5007050;28;20195;-88
2022/06/23 02:08:31;;;;;;;18.77;12.30;;;12.40;99.90;;;;;;5004319;28;20366;-89
2022/06/23 02:11:18;;;;;;;21.55;13.63;;;12.50;99.90;;;;;;5036455;28;20048;-88
2022/06/23 02:14:19;;;;;;;20.38;13.45;;;12.50;99.90;;;;;;5020192;28;20075;-89
2022/06/23 02:16:52;;;;;;;20.13;12.88;;;12.30;99.90;;;;;;5036414;28;20152;-89
2022/06/23 02:19:36;;;;;;;23.45;14.63;;;12.30;99.90;;;;;;5036866;28;20052;-89
2022/06/23 02:22:12;;;;;;;23.70;14.27;;;12.30;99.90;;;;;;5037121;28;20056;-88
2022/06/23 02:24:55;;;;;;;21.67;14.50;;;12.20;99.90;;;;;;5004887;28;20182;-89
2022/06/23 02:27:27;;;;;;;22.77;13.85;;;12.20;99.90;;;;;;5019838;28;20056;-88
2022/06/23 02:29:56;;;;;;;26.75;14.75;;;12.20;99.90;;;;;;5020397;28;20489;-88
2022/06/23 02:32:57;;;;;;;26.90;14.52;;;12.20;99.90;;;;;;5020355;28;20049;-89
2022/06/23 02:35:41;;;;;;;21.15;14.30;;;12.10;99.90;;;;;;4946637;28;20035;-88
2022/06/23 02:38:10;;;;;;;23.95;15.27;;;12.10;99.90;;;;;;5049635;28;20064;-88
2022/06/23 02:40:37;;;;;;;27.77;15.15;;;12.00;99.90;;;;;;5036626;28;20146;-88
2022/06/23 02:43:13;;;;;;;29.13;16.02;;;12.00;99.90;;;;;;5019494;28;20040;-88
2022/06/23 02:46:17;;;;;;;32.95;17.25;;;11.90;99.90;;;;;;5036012;28;20114;-88
2022/06/23 02:49:04;;;;;;;26.52;16.45;;;11.90;99.90;;;;;;5005378;28;20087;-89
2022/06/23 02:52:04;;;;;;;28.13;16.92;;;11.90;99.90;;;;;;5019796;28;20167;-89
2022/06/23 02:54:38;;;;;;;28.40;16.63;;;11.90;99.90;;;;;;5036005;28;20044;-88
2022/06/23 02:57:23;;;;;;;28.70;16.48;;;11.90;99.90;;;;;;5019057;28;20053;-88
2022/06/23 02:59:51;;;;;;;30.40;16.80;;;11.90;99.90;;;;;;5036358;28;20132;-88
2022/06/23 03:02:32;;;;;;;31.27;17.58;;;11.90;99.90;;;;;;5003579;28;20491;-89
2022/06/23 03:05:01;;;;;;;28.25;17.05;;;11.90;99.90;;;;;;5036289;28;20057;-88
2022/06/23 03:07:34;;;;;;;28.42;15.40;;;11.80;99.90;;;;;;5035788;28;20041;-89
2022/06/23 03:10:06;;;;;;;25.97;15.50;;;11.90;99.90;;;;;;5005288;28;20080;-88
2022/06/23 03:13:08;;;;;;;26.17;15.63;;;11.80;99.90;;;;;;5021239;28;20287;-89
2022/06/23 03:15:47;;;;;;;22.90;14.75;;;11.90;99.90;;;;;;5012120;28;20065;-88
2022/06/23 03:18:19;;;;;;;26.40;15.23;;;11.90;99.90;;;;;;5027038;28;20057;-89
2022/06/23 03:21:25;;;;;;;28.25;16.65;;;11.80;99.90;;;;;;5024461;28;20072;-90
2022/06/23 03:24:15;;;;;;;31.10;17.13;;;11.80;99.90;;;;;;4938402;29;20129;-88
2022/06/23 03:26:57;;;;;;;30.75;17.20;;;11.70;99.90;;;;;;5024567;28;20393;-90
2022/06/23 03:29:32;;;;;;;30.00;16.10;;;11.80;99.90;;;;;;5040663;28;20049;-88
2022/06/23 03:32:19;;;;;;;29.25;16.88;;;11.70;99.90;;;;;;5027117;28;20088;-88
2022/06/23 03:35:16;;;;;;;26.48;16.02;;;11.70;99.90;;;;;;5009951;28;20049;-88
2022/06/23 03:37:44;;;;;;;28.27;16.50;;;11.70;99.90;;;;;;5024952;28;20060;-89
2022/06/23 03:43:34;;;;;;;27.00;15.85;;;11.80;99.90;;;;;;5031684;28;20059;-88
2022/06/23 03:46:14;;;;;;;26.50;15.35;;;11.80;99.90;;;;;;5026377;28;20131;-87
2022/06/23 03:48:42;;;;;;;21.25;13.85;;;12.00;99.90;;;;;;5040106;28;20049;-87
2022/06/23 03:51:34;;;;;;;23.02;14.27;;;12.10;99.90;;;;;;5022882;28;20045;-87
2022/06/23 03:54:09;;;;;;;24.10;15.18;;;12.30;99.90;;;;;;5018718;28;20056;-87
2022/06/23 03:56:44;;;;;;;;;;;12.30;99.90;;;;;;4991822;28;20111;-88
2022/06/23 03:59:15;;;;;;;28.02;16.23;;;12.40;99.90;;;;;;5022740;28;20361;-88
2022/06/23 04:02:13;;;;;;;24.20;15.55;;;12.50;99.90;;;;;;5007034;28;20393;-89
2022/06/23 04:04:57;;;;;;;26.75;16.05;;;12.60;99.90;;;;;;4985428;28;20057;-88
2022/06/23 04:07:29;;;;;;;22.23;15.50;;;12.50;99.90;;;;;;5039333;28;20067;-88
2022/06/23 04:10:09;;;;;;;21.30;14.45;;;12.60;99.90;;;;;;5038834;28;20056;-87
2022/06/23 04:12:35;;;;;;;22.25;14.93;;;12.70;99.90;;;;;;4990941;28;20114;-87
2022/06/23 04:15:09;;;;;;;23.13;14.63;;;12.70;99.90;;;;;;4989745;28;20045;-88
2022/06/23 04:17:38;;;;;;;;;;;12.70;99.90;;;;;;5022971;28;20079;-87
2022/06/23 04:20:20;;;;;;;26.98;16.13;;;12.80;99.90;;;;;;5022680;28;20015;-89
2022/06/23 04:22:56;;;;;;;24.73;15.07;;;12.80;99.90;;;;;;5022045;28;20405;-88
2022/06/23 04:25:24;;;;;;;22.60;15.27;;;12.90;99.90;;;;;;5022653;28;20045;-88
2022/06/23 04:27:54;;;;;;;22.13;13.70;;;12.80;99.90;;;;;;4991074;28;20049;-89
2022/06/23 04:30:32;;;;;;;23.95;15.23;;;12.60;99.90;;;;;;4990643;28;20424;-89
2022/06/23 04:32:59;;;;;;;22.23;14.40;;;12.70;99.90;;;;;;5006550;28;20473;-88
2022/06/23 04:35:36;;;;;;;26.17;16.20;;;12.80;99.90;;;;;;5006628;28;20068;-89
2022/06/23 04:38:11;;;;;;;25.23;16.42;;;12.90;99.90;;;;;;4990080;28;20136;-88
2022/06/23 04:40:43;;;;;;;19.80;14.80;;;13.10;99.90;;;;;;5038391;28;20508;-88
2022/06/23 04:43:18;;;;;;;19.08;13.93;;;13.90;99.90;;;;;;5056344;28;20435;-88
2022/06/23 04:45:57;;;;;;;18.15;13.85;;;14.80;99.90;;;;;;5038859;28;20494;-89
2022/06/23 04:48:44;;;;;;;18.73;12.70;;;15.70;99.90;;;;;;5023872;28;20049;-90
2022/06/23 04:51:21;;;;;;;15.00;12.05;;;16.50;99.90;;;;;;5022317;28;20037;-87
2022/06/23 04:54:14;;;;;;;13.80;12.05;;;17.10;99.90;;;;;;5038751;28;20156;-89
2022/06/23 04:56:46;;;;;;;15.15;13.00;;;17.50;99.90;;;;;;5039019;28;20048;-91
2022/06/23 04:59:51;;;;;;;13.77;11.77;;;18.00;99.90;;;;;;5037940;28;20048;-90
2022/06/23 05:02:34;;;;;;;15.52;12.60;;;18.40;99.90;;;;;;4908294;29;20047;-90
2022/06/23 05:05:08;;;;;;;14.98;11.85;;;18.70;99.90;;;;;;4940531;29;20055;-93
2022/06/23 05:07:42;;;;;;;13.15;11.73;;;18.70;99.90;;;;;;5012110;28;20053;-90
2022/06/23 05:10:13;;;;;;;16.25;12.27;;;19.40;99.90;;;;;;4992552;28;20104;-92
2022/06/23 05:12:43;;;;;;;13.63;12.23;;;19.50;99.90;;;;;;4991898;28;20060;-92
2022/06/23 05:15:15;;;;;;;12.30;11.10;;;19.20;99.90;;;;;;5028691;28;20041;-95
2022/06/23 05:17:54;;;;;;;13.93;12.27;;;20.10;99.90;;;;;;5026694;28;20063;-92
2022/06/23 05:20:29;;;;;;;12.65;10.93;;;20.40;99.90;;;;;;5009958;28;20057;-89
2022/06/23 05:22:54;;;;;;;14.98;11.13;;;20.50;99.90;;;;;;5032867;28;20102;-95
2022/06/23 05:25:37;;;;;;;12.63;11.52;;;21.20;99.90;;;;;;5010162;28;20045;-96
2022/06/23 05:28:06;;;;;;;12.73;11.43;;;21.10;99.90;;;;;;5007579;28;20053;-94
2022/06/23 05:30:39;;;;;;;15.35;12.02;;;21.40;99.90;;;;;;4989910;28;20057;-94
2022/06/23 05:33:16;;;;;;;13.27;11.80;;;21.90;99.90;;;;;;5037273;28;20057;-94
2022/06/23 05:35:54;;;;;;;12.00;10.88;;;21.80;99.90;;;;;;5006644;28;20049;-92
2022/06/23 05:38:23;;;;;;;11.43;10.32;;;21.90;99.90;;;;;;4992933;28;20457;-94
2022/06/23 05:40:55;;;;;;;14.00;11.88;;;21.70;99.90;;;;;;5022466;28;20040;-95
2022/06/23 05:43:21;;;;;;;11.48;10.32;;;22.10;99.90;;;;;;4992841;28;20067;-96
2022/06/23 05:45:51;;;;;;;12.77;11.48;;;21.80;99.90;;;;;;4994264;28;20056;-95
2022/06/23 05:48:23;;;;;;;11.45;10.35;;;22.10;99.90;;;;;;5008719;28;20098;-96
2022/06/23 05:51:02;;;;;;;10.65;9.65;;;22.90;99.90;;;;;;5015951;28;20534;-96
2022/06/23 05:53:42;;;;;;;12.52;11.23;;;23.40;99.90;;;;;;5020137;28;20136;-95
2022/06/23 05:56:19;;;;;;;12.82;11.18;;;23.60;99.90;;;;;;5027385;28;20056;-95
2022/06/23 05:58:48;;;;;;;12.45;11.25;;;23.30;99.90;;;;;;5023319;28;20512;-95
2022/06/23 06:01:24;;;;;;;11.75;10.60;;;22.90;99.90;;;;;;5013033;28;20052;-95
2022/06/23 06:04:15;;;;;;;13.32;11.85;;;23.60;99.90;;;;;;5024357;28;20064;-94
2022/06/23 06:06:41;;;;;;;11.00;9.90;;;23.40;99.90;;;;;;5018982;28;20053;-95
2022/06/23 06:11:58;;;;;;;11.55;10.45;;;24.20;99.90;;;;;;5027772;28;20136;-96
2022/06/23 06:14:28;;;;;;;12.55;11.25;;;25.10;99.90;;;;;;5010053;28;20037;-96
2022/06/23 06:17:00;;;;;;;10.82;9.73;;;24.50;99.90;;;;;;5007663;28;20057;-95
2022/06/23 06:19:26;;;;;;;11.57;10.55;;;24.60;99.90;;;;;;4993018;28;20048;-96
2022/06/23 06:21:55;;;;;;;11.50;10.30;;;24.80;99.90;;;;;;5011867;28;20060;-96
2022/06/23 06:24:31;;;;;;;14.10;9.98;;;25.00;99.90;;;;;;5014187;28;20041;-95
2022/06/23 06:27:00;;;;;;;11.57;10.48;;;24.80;99.90;;;;;;5043391;23;20149;-96
2022/06/23 06:29:35;;;;;;;11.30;10.30;;;24.60;99.90;;;;;;5001956;28;20085;-94
2022/06/23 06:32:25;;;;;;;10.93;9.80;;;25.20;99.90;;;;;;4985194;28;20129;-95
2022/06/23 06:34:58;;;;;;;10.23;9.32;;;25.50;99.90;;;;;;5020292;28;20031;-92
2022/06/23 06:37:28;;;;;;;11.20;10.20;;;25.20;99.90;;;;;;4993497;28;20053;-92
2022/06/23 06:39:55;;;;;;;10.45;9.45;;;24.90;99.90;;;;;;5012678;28;20033;-92
2022/06/23 06:42:30;;;;;;;11.25;10.07;;;25.20;99.90;;;;;;5014608;28;20073;-92
2022/06/23 06:44:57;;;;;;;10.50;9.23;;;25.70;99.90;;;;;;4999695;28;20022;-92
2022/06/23 06:47:28;;;;;;;9.65;8.75;;;25.80;99.90;;;;;;4981814;28;20037;-92
2022/06/23 06:49:54;;;;;;;10.93;9.70;;;26.40;99.90;;;;;;4997715;28;20058;-94
2022/06/23 06:52:20;;;;;;;10.05;9.05;;;26.40;99.90;;;;;;4980865;28;20089;-94
2022/06/23 06:54:56;;;;;;;11.45;10.23;;;25.60;99.90;;;;;;5003027;28;20042;-94
2022/06/23 06:57:30;;;;;;;10.75;8.88;;;26.40;99.90;;;;;;4973073;28;20104;-94
2022/06/23 07:00:00;;;;;;;;;;;26.50;99.90;;;;;;4965779;28;20069;-96
2022/06/23 07:02:42;;;;;;;10.18;8.57;;;26.30;99.90;;;;;;4980379;28;19928;-95
2022/06/23 07:05:46;;;;;;;10.80;8.95;;;27.10;99.90;;;;;;4974623;28;20085;-93
2022/06/23 07:08:25;;;;;;;9.93;8.23;;;27.40;99.90;;;;;;4981070;28;20046;-95
2022/06/23 07:10:56;;;;;;;9.35;8.40;;;26.90;99.90;;;;;;4981071;28;20098;-94
2022/06/23 07:13:28;;;;;;;9.23;8.32;;;26.90;99.90;;;;;;4979527;28;20047;-94
2022/06/23 07:15:59;;;;;;;8.48;7.60;;;27.20;99.90;;;;;;4946646;28;20116;-94
2022/06/23 07:18:56;;;;;;;11.20;8.23;;;27.00;99.90;;;;;;4976890;28;20054;-94
2022/06/23 07:21:36;;;;;;;9.30;7.57;;;27.30;99.90;;;;;;5008273;28;20112;-94
2022/06/23 07:24:11;;;;;;;8.98;7.97;;;28.20;99.90;;;;;;4976736;28;20125;-94
2022/06/23 07:27:00;;;;;;;10.27;7.72;;;28.30;99.90;;;;;;4977274;28;20093;-93
2022/06/23 07:29:40;;;;;;;7.90;7.18;;;28.30;99.90;;;;;;4977479;28;20055;-93
2022/06/23 07:32:16;;;;;;;8.18;6.85;;;28.70;99.90;;;;;;4975131;28;20042;-94
2022/06/23 07:34:48;;;;;;;8.38;7.13;;;28.00;99.90;;;;;;4974437;28;20046;-94
2022/06/23 07:37:38;;;;;;;9.00;6.93;;;27.90;99.90;;;;;;4958972;28;20099;-93
2022/06/23 07:40:06;;;;;;;7.85;6.82;;;27.90;99.90;;;;;;4989115;28;20046;-92
2022/06/23 07:42:44;;;;;;;8.27;7.07;;;28.10;99.90;;;;;;4975227;28;20050;-93
2022/06/23 07:45:28;;;;;;;13.93;7.00;;;28.10;99.90;;;;;;4995163;28;20140;-95
2022/06/23 07:47:54;;;;;;;8.15;7.30;;;28.40;99.90;;;;;;4960955;28;20065;-94
2022/06/23 07:50:20;;;;;;;8.57;7.60;;;27.70;99.90;;;;;;4960668;28;20054;-93
2022/06/23 07:52:46;;;;;;;8.85;6.82;;;27.40;99.90;;;;;;4990311;28;20154;-91
2022/06/23 07:55:40;;;;;;;9.88;7.00;;;28.10;99.90;;;;;;4957581;28;20459;-90
2022/06/23 07:58:07;;;;;;;8.18;7.15;;;28.10;99.90;;;;;;4973465;28;20054;-89
2022/06/23 08:00:56;;;;;;;11.25;6.65;;;28.20;99.90;;;;;;4960142;28;20512;-91
2022/06/23 08:03:33;;;;;;;7.47;6.15;;;28.20;99.90;;;;;;4964267;28;20038;-90
2022/06/23 08:06:01;;;;;;;9.23;6.78;;;28.40;99.90;;;;;;4962090;28;20054;-90
2022/06/23 08:08:29;;;;;;;8.02;7.22;;;28.60;99.90;;;;;;4961314;28;20149;-93
2022/06/23 08:13:43;;;;;;;9.10;6.72;;;29.10;99.90;;;;;;4966679;28;20093;-90
2022/06/23 08:19:06;;;;;;;7.57;6.93;;;29.30;99.90;;;;;;4977804;28;20648;-90
2022/06/23 08:21:39;;;;;;;7.00;6.30;;;29.10;99.90;;;;;;4977737;28;20089;-90
2022/06/23 08:24:14;;;;;;;6.88;6.18;;;28.90;99.90;;;;;;4990936;28;20442;-91
2022/06/23 08:26:42;;;;;;;8.15;7.20;;;29.60;99.90;;;;;;4977143;28;20054;-90
2022/06/23 08:29:10;;;;;;;9.02;6.85;;;29.40;99.90;;;;;;4977800;28;20058;-90
2022/06/23 08:31:36;;;;;;;8.65;6.47;;;29.20;99.90;;;;;;4977047;28;20050;-90
2022/06/23 08:34:02;;;;;;;8.02;6.93;;;29.40;99.90;;;;;;4960658;28;20057;-89
2022/06/23 08:36:55;;;;;;;7.65;6.95;;;29.80;99.90;;;;;;4976528;28;20042;-89
2022/06/23 08:39:26;;;;;;;9.07;6.50;;;29.50;99.90;;;;;;4974463;28;20062;-89
2022/06/23 08:42:06;;;;;;;9.68;6.13;;;29.60;99.90;;;;;;4992604;28;20403;-90
2022/06/23 08:45:01;;;;;;;7.70;6.70;;;29.60;99.90;;;;;;4976951;28;20096;-89
2022/06/23 08:48:01;;;;;;;11.32;6.63;;;29.70;99.90;;;;;;5008780;28;20372;-89
2022/06/23 08:50:31;;;;;;;6.90;5.57;;;29.90;99.90;;;;;;4962706;28;20046;-88
2022/06/23 08:53:11;;;;;;;7.03;6.15;;;30.90;99.90;;;;;;4976312;28;20572;-90
2022/06/23 08:56:07;;;;;;;7.90;5.55;;;30.10;99.90;;;;;;4992341;28;20050;-86
2022/06/23 08:59:18;;;;;;;6.07;5.47;;;30.00;99.90;;;;;;4976781;28;20046;-89
2022/06/23 09:01:49;;;;;;;7.95;5.57;;;30.40;99.70;;;;;;4963070;28;20054;-89
2022/06/23 09:04:27;;;;;;;8.98;6.05;;;30.30;99.50;;;;;;4999979;28;20061;-90
2022/06/23 09:06:57;;;;;;;6.97;5.85;;;30.30;99.50;;;;;;5006787;28;20050;-89
2022/06/23 09:09:34;;;;;;;6.53;4.35;;;30.10;99.50;;;;;;4990834;28;20054;-88
2022/06/23 09:12:19;;;;;;;6.95;4.75;;;29.90;98.40;;;;;;4987145;28;20126;-88
2022/06/23 09:15:13;;;;;;;7.85;5.38;;;30.00;98.60;;;;;;4962016;28;20038;-89
2022/06/23 09:18:02;;;;;;;6.43;5.47;;;30.00;99.50;;;;;;4990201;28;20505;-89
2022/06/23 09:20:50;;;;;;;5.90;4.40;;;30.10;99.20;;;;;;4967098;28;20426;-89
2022/06/23 09:23:34;;;;;;;5.70;4.28;;;30.40;99.00;;;;;;4974626;28;20117;-89
2022/06/23 09:26:09;;;;;;;4.90;4.18;;;30.70;98.40;;;;;;4972792;28;20047;-89
2022/06/23 09:28:55;;;;;;;5.65;4.30;;;30.80;98.30;;;;;;4972207;28;20423;-89
2022/06/23 09:31:46;;;;;;;5.63;4.20;;;31.30;98.00;;;;;;4988998;28;20051;-87
2022/06/23 09:34:34;;;;;;;4.68;3.33;;;31.20;98.50;;;;;;4974133;28;20046;-88
2022/06/23 09:37:32;;;;;;;5.95;3.50;;;31.40;97.50;;;;;;4992752;28;20117;-89
2022/06/23 09:40:04;;;;;;;6.72;3.63;;;31.10;96.80;;;;;;4976976;28;20058;-87
2022/06/23 09:42:48;;;;;;;5.18;4.05;;;30.60;97.40;;;;;;4960759;28;20104;-88
2022/06/23 09:45:33;;;;;;;6.90;3.35;;;30.70;97.20;;;;;;4991519;28;20046;-88
2022/06/23 09:48:32;;;;;;;4.88;3.33;;;31.20;97.20;;;;;;4976255;28;20172;-87
2022/06/23 09:51:24;;;;;;;5.32;3.30;;;31.20;96.70;;;;;;4992333;28;20058;-87
2022/06/23 09:54:05;;;;;;;4.90;3.25;;;31.00;96.70;;;;;;4987441;28;20054;-89
2022/06/23 09:57:09;;;;;;;6.57;3.42;;;30.80;96.90;;;;;;4974897;28;20038;-86
2022/06/23 10:00:13;;;;;;;4.05;2.83;;;30.80;96.90;;;;;;5009354;28;20113;-87
2022/06/23 10:02:57;;;;;;;;;;;31.20;96.40;;;;;;4966318;28;20501;-87
2022/06/23 10:05:22;;;;;;;;;;;31.30;96.60;;;;;;5011955;28;20060;-87
2022/06/23 10:07:57;;;;;;;6.97;3.30;;;31.40;96.10;;;;;;4989266;28;20001;-87
2022/06/23 10:10:38;;;;;;;5.28;3.47;;;31.40;96.60;;;;;;5009733;28;20176;-87
2022/06/23 10:13:29;;;;;;;5.90;3.10;;;31.30;96.50;;;;;;4980357;28;20097;-87
2022/06/23 10:16:16;;;;;;;6.03;3.05;;;31.10;97.10;;;;;;4992078;28;20088;-89
2022/06/23 10:19:22;;;;;;;5.80;3.00;;;31.40;96.70;;;;;;4999690;28;20062;-87
2022/06/23 10:22:18;;;;;;;5.18;3.03;;;31.30;95.70;;;;;;4990549;28;20068;-88
2022/06/23 10:24:59;;;;;;;3.05;2.75;;;31.30;95.70;;;;;;4992466;28;20100;-91
2022/06/23 10:28:10;;;;;;;3.45;2.70;;;31.70;96.00;;;;;;5017309;28;20054;-88
2022/06/23 10:30:56;;;;;;;3.88;2.30;;;31.00;95.30;;;;;;4974816;28;20050;-88
2022/06/23 10:33:47;;;;;;;5.20;2.47;;;31.30;95.20;;;;;;4976745;28;20120;-88
2022/06/23 10:36:50;;;;;;;4.60;2.58;;;31.30;95.20;;;;;;5006655;28;20442;-88
2022/06/23 10:39:38;;;;;;;3.35;2.28;;;31.70;94.90;;;;;;5005005;28;20502;-87
2022/06/23 10:42:26;;;;;;;4.18;2.20;;;31.70;94.70;;;;;;4992745;28;20461;-89
2022/06/23 10:45:18;;;;;;;4.43;2.65;;;32.10;94.80;;;;;;4989643;28;20208;-89
2022/06/23 10:48:06;;;;;;;4.13;2.33;;;31.50;94.90;;;;;;4977782;28;20070;-88
2022/06/23 10:50:50;;;;;;;3.17;2.40;;;31.70;94.70;;;;;;4973762;28;20514;-88
2022/06/23 10:53:28;;;;;;;4.97;2.30;;;31.90;95.00;;;;;;4991069;28;20491;-88
2022/06/23 10:56:12;;;;;;;6.03;2.50;;;31.90;94.80;;;;;;4989571;28;20446;-87
2022/06/23 10:59:12;;;;;;;4.47;2.40;;;32.00;94.20;;;;;;4992179;28;20039;-87
2022/06/23 11:01:58;;;;;;;3.03;2.10;;;31.60;94.10;;;;;;4993012;28;20368;-88
2022/06/23 11:04:31;;;;;;;4.93;2.22;;;32.00;94.50;;;;;;4988480;28;20054;-88
2022/06/23 11:07:06;;;;;;;4.13;2.30;;;31.90;94.50;;;;;;4989102;28;20058;-88
2022/06/23 11:09:56;;;;;;;4.20;2.47;;;32.00;94.00;;;;;;4989760;28;20078;-88
2022/06/23 11:12:40;;;;;;;5.90;2.40;;;31.40;93.80;;;;;;4975590;28;20136;-88
2022/06/23 11:15:12;;;;;;;5.30;2.25;;;32.00;94.50;;;;;;4987596;28;20602;-88
2022/06/23 11:18:09;;;;;;;8.23;2.60;;;32.20;94.00;;;;;;4990804;28;20380;-88
2022/06/23 11:21:07;;;;;;;4.30;2.10;;;32.40;93.80;;;;;;4975064;28;20137;-88
2022/06/23 11:23:47;;;;;;;5.13;2.10;;;32.10;94.20;;;;;;4973721;28;20050;-88
2022/06/23 11:26:40;;;;;;;5.32;2.10;;;31.80;94.60;;;;;;4989420;28;20042;-88
2022/06/23 11:29:20;;;;;;;2.20;2.00;;;31.40;93.90;;;;;;4989774;28;20065;-88
2022/06/23 11:32:02;;;;;;;4.60;2.30;;;31.40;93.80;;;;;;4958380;28;20050;-89
2022/06/23 11:35:05;;;;;;;3.55;1.98;;;30.80;94.00;;;;;;4975242;28;20050;-89
2022/06/23 11:37:55;;;;;;;2.60;2.40;;;30.70;94.20;;;;;;4991351;28;20061;-89
2022/06/23 11:40:45;;;;;;;3.70;2.25;;;30.80;94.90;;;;;;5010071;28;20058;-87
2022/06/23 11:43:13;;;;;;;3.50;2.20;;;31.00;94.70;;;;;;4992581;28;20047;-89
2022/06/23 11:46:10;;;;;;;3.08;2.10;;;31.10;94.00;;;;;;4993330;28;20545;-89
2022/06/23 11:48:44;;;;;;;3.67;2.30;;;31.10;93.60;;;;;;5004420;28;20557;-89
2022/06/23 11:51:44;;;;;;;4.13;2.20;;;31.10;94.80;;;;;;4992670;28;20054;-88
2022/06/23 11:54:40;;;;;;;3.80;2.35;;;31.40;94.30;;;;;;4992128;28;20046;-89
2022/06/23 11:57:24;;;;;;;5.43;2.50;;;31.40;94.20;;;;;;4991289;28;20066;-88
2022/06/23 12:00:05;;;;;;;3.55;2.30;;;31.40;94.20;;;;;;4994370;28;20050;-87
2022/06/23 12:02:34;;;;;;;3.65;2.00;;;31.70;93.50;;;;;;4977745;28;20062;-87
2022/06/23 12:05:11;;;;;;;4.15;2.00;;;31.70;93.70;;;;;;4958006;28;20054;-91
2022/06/23 12:07:54;;;;;;;4.38;2.00;;;31.90;93.00;;;;;;4993298;28;20129;-89
2022/06/23 12:10:25;;;;;;;4.05;1.77;;;31.80;93.00;;;;;;4976062;28;20173;-88
2022/06/23 12:12:53;;;;;;;4.57;2.20;;;31.60;92.80;;;;;;4959678;28;20050;-87
2022/06/23 12:15:24;;;;;;;4.55;2.05;;;31.70;92.90;;;;;;4990453;28;20062;-88
2022/06/23 12:18:02;;;;;;;2.85;1.90;;;31.60;93.30;;;;;;4958724;28;20038;-87
2022/06/23 12:20:46;;;;;;;4.82;2.33;;;31.70;92.90;;;;;;4991094;28;20105;-88
2022/06/23 12:23:26;;;;;;;2.85;2.10;;;31.80;93.00;;;;;;4990448;28;20049;-86
2022/06/23 12:26:19;;;;;;;2.45;1.98;;;31.90;93.20;;;;;;4991113;28;20054;-88
2022/06/23 12:28:48;;;;;;;2.78;2.10;;;31.80;93.50;;;;;;4991565;28;20061;-88
2022/06/23 12:31:16;;;;;;;5.07;2.10;;;31.80;93.40;;;;;;4974793;28;20054;-88
2022/06/23 12:33:54;;;;;;;3.15;2.15;;;31.70;92.60;;;;;;4993184;28;20055;-87
2022/06/23 12:36:28;;;;;;;2.92;2.10;;;31.80;93.20;;;;;;4975125;28;20133;-86
2022/06/23 12:38:56;;;;;;;2.63;1.92;;;31.80;92.90;;;;;;4971377;28;20058;-85
2022/06/23 12:41:36;;;;;;;3.05;2.35;;;31.70;92.60;;;;;;4958416;28;20396;-85
2022/06/23 12:44:26;;;;;;;6.50;2.33;;;31.40;92.60;;;;;;4977589;28;20062;-88
2022/06/23 12:47:13;;;;;;;2.85;2.00;;;31.40;92.80;;;;;;4990073;28;20054;-84
2022/06/23 12:49:48;;;;;;;6.18;2.13;;;31.40;92.50;;;;;;4990950;28;20054;-84
2022/06/23 12:52:21;;;;;;;3.85;2.30;;;31.50;93.40;;;;;;4992142;28;20088;-89
2022/06/23 12:54:49;;;;;;;3.25;2.40;;;31.50;93.80;;;;;;4975432;28;20477;-89
2022/06/23 12:57:35;;;;;;;4.35;2.20;;;31.80;93.40;;;;;;4990888;28;20054;-90
2022/06/23 13:00:40;;;;;;;3.20;2.30;;;32.00;93.60;;;;;;4990137;28;20061;-89
2022/06/23 13:03:14;;;;;;;3.47;2.40;;;32.20;92.70;;;;;;4989801;28;20073;-90
2022/06/23 13:05:46;;;;;;;4.15;2.15;;;32.10;92.80;;;;;;4990488;28;20491;-89
2022/06/23 13:08:19;;;;;;;5.57;2.00;;;31.60;92.50;;;;;;4975367;28;20089;-89
2022/06/23 13:10:49;;;;;;;3.78;2.25;;;31.90;93.30;;;;;;4990791;28;20054;-87
2022/06/23 13:13:22;;;;;;;3.15;2.38;;;32.00;92.70;;;;;;4975466;28;20462;-87
2022/06/23 13:16:06;;;;;;;3.20;2.00;;;31.70;92.60;;;;;;4992631;28;20054;-87
2022/06/23 13:18:39;;;;;;;4.05;2.35;;;31.90;92.20;;;;;;4959753;28;20498;-86
2022/06/23 13:21:20;;;;;;;;;;;31.90;92.70;;;;;;4959588;28;20058;-90
2022/06/23 13:23:51;;;;;;;2.50;2.30;;;31.80;92.50;;;;;;4992490;28;20016;-89
2022/06/23 13:26:36;;;;;;;2.80;2.20;;;31.90;92.40;;;;;;4974743;28;20054;-89
2022/06/23 13:29:11;;;;;;;5.25;2.10;;;32.10;92.40;;;;;;4992072;28;20061;-91
2022/06/23 13:31:41;;;;;;;4.90;2.28;;;32.00;92.60;;;;;;4990138;28;20056;-89
2022/06/23 13:34:27;;;;;;;3.88;2.33;;;31.90;92.10;;;;;;4974071;28;20141;-89
2022/06/23 13:37:28;;;;;;;2.78;2.20;;;31.80;92.70;;;;;;4974814;28;20495;-87
2022/06/23 13:40:02;;;;;;;2.88;2.22;;;31.90;92.50;;;;;;4986636;28;20058;-89
2022/06/23 13:42:49;;;;;;;4.82;1.90;;;32.00;92.20;;;;;;4989939;28;20392;-88
2022/06/23 13:45:27;;;;;;;3.20;2.33;;;31.90;91.60;;;;;;4989852;28;20104;-88
2022/06/23 13:47:59;;;;;;;2.53;2.33;;;31.80;91.80;;;;;;4990702;28;20054;-86
2022/06/23 13:50:43;;;;;;;2.65;2.13;;;31.50;92.10;;;;;;4974482;28;20131;-88
2022/06/23 13:53:23;;;;;;;3.13;2.38;;;31.70;92.10;;;;;;4960362;28;20050;-88